Station Historical Data
Daily Summary for June 27, 2017 Units:  English    Metric   Both
« Previous Day
Next Day »
Daily Weekly Monthly Yearly Custom
  High: Low: Average:
Temperature: 66.6 °F 52.4 °F 59.8 °F
Dew Point: 56.4 °F 46.2 °F 51.8 °F
Humidity: 88% 62% 75%
Wind Speed: 14.0mph 0.0mph 3.7mph
Wind Gust: 22.0mph - -
Wind- - WSW
Pressure: 30.04 in 29.92 in -
Precipitation: 0.00 in    
Historical Graphs
 
 
Tabular Data for June 27, 2017
Time Temperature Dew Point Pressure Wind Wind Speed Wind Gust Humidity Rainfall Rate (Hourly)
00:04 57.4 °F 49.5 °F 29.94 in Calm     75% 0.00 in
00:09 57.5 °F 49.6 °F 29.94 in Calm     75% 0.00 in
00:14 57.6 °F 49.7 °F 29.94 in Calm     75% 0.00 in
00:19 57.5 °F 49.6 °F 29.94 in Calm     75% 0.00 in
00:24 57.3 °F 49.8 °F 29.94 in Calm     76% 0.00 in
00:29 57.0 °F 49.5 °F 29.93 in Calm     76% 0.00 in
00:34 56.8 °F 49.3 °F 29.93 in Calm     76% 0.00 in
00:39 57.1 °F 50.0 °F 29.93 in South 1.0 mph 4.0 mph 77% 0.00 in
00:44 57.4 °F 50.2 °F 29.93 in South 1.0 mph 4.0 mph 77% 0.00 in
00:49 57.7 °F 50.5 °F 29.93 in South 1.0 mph 4.0 mph 77% 0.00 in
00:54 57.9 °F 50.7 °F 29.93 in South 3.0 mph 5.0 mph 77% 0.00 in
00:59 58.0 °F 50.8 °F 29.93 in SSE 2.0 mph 4.0 mph 77% 0.00 in
01:04 57.9 °F 50.7 °F 29.93 in South 2.0 mph 6.0 mph 77% 0.00 in
01:09 57.7 °F 50.9 °F 29.93 in South 2.0 mph 6.0 mph 78% 0.00 in
01:14 57.6 °F 50.8 °F 29.93 in Calm   3.0 mph 78% 0.00 in
01:19 57.7 °F 50.9 °F 29.93 in South 3.0 mph 4.0 mph 78% 0.00 in
01:24 57.7 °F 50.9 °F 29.93 in South 1.0 mph 5.0 mph 78% 0.00 in
01:29 57.7 °F 50.9 °F 29.93 in South 4.0 mph 7.0 mph 78% 0.00 in
01:34 57.9 °F 50.7 °F 29.93 in South 2.0 mph 7.0 mph 77% 0.00 in
01:39 58.1 °F 50.9 °F 29.93 in SSW 2.0 mph 7.0 mph 77% 0.00 in
01:44 58.4 °F 50.9 °F 29.92 in South 2.0 mph 7.0 mph 76% 0.00 in
01:49 58.6 °F 51.1 °F 29.92 in South 2.0 mph 6.0 mph 76% 0.00 in
01:54 58.6 °F 51.1 °F 29.92 in South 1.0 mph 4.0 mph 76% 0.00 in
01:59 58.6 °F 51.1 °F 29.92 in West 1.0 mph 5.0 mph 76% 0.00 in
02:04 58.9 °F 50.6 °F 29.92 in SSW 3.0 mph 7.0 mph 74% 0.00 in
02:09 59.2 °F 51.3 °F 29.93 in SSW 8.0 mph 18.0 mph 75% 0.00 in
02:14 59.1 °F 51.5 °F 29.93 in SW 3.0 mph 13.0 mph 76% 0.00 in
02:19 58.7 °F 51.9 °F 29.93 in SSW 7.0 mph 12.0 mph 78% 0.00 in
02:24 58.2 °F 52.1 °F 29.93 in WSW 5.0 mph 11.0 mph 80% 0.00 in
02:29 58.0 °F 52.2 °F 29.93 in SW 4.0 mph 11.0 mph 81% 0.00 in
02:34 57.8 °F 52.3 °F 29.93 in SW 3.0 mph 6.0 mph 82% 0.00 in
02:39 57.7 °F 52.2 °F 29.93 in WSW 2.0 mph 4.0 mph 82% 0.00 in
02:44 57.7 °F 52.6 °F 29.93 in WSW 2.0 mph 4.0 mph 83% 0.00 in
02:49 57.8 °F 52.3 °F 29.92 in Calm   3.0 mph 82% 0.00 in
02:54 57.8 °F 52.3 °F 29.92 in Calm   1.0 mph 82% 0.00 in
02:59 57.8 °F 52.3 °F 29.92 in Calm   3.0 mph 82% 0.00 in
03:04 57.7 °F 52.2 °F 29.92 in WSW 1.0 mph 3.0 mph 82% 0.00 in
03:09 57.7 °F 51.6 °F 29.92 in West 1.0 mph 5.0 mph 80% 0.00 in
03:14 57.8 °F 51.7 °F 29.92 in West 2.0 mph 5.0 mph 80% 0.00 in
03:19 57.8 °F 51.3 °F 29.93 in West 1.0 mph 4.0 mph 79% 0.00 in
03:24 57.8 °F 51.3 °F 29.93 in SSW 2.0 mph 3.0 mph 79% 0.00 in
03:29 57.7 °F 51.9 °F 29.94 in SSW 2.0 mph 5.0 mph 81% 0.01 in
03:34 57.3 °F 51.5 °F 29.93 in SSW 2.0 mph 7.0 mph 81% 0.01 in
03:39 56.8 °F 51.4 °F 29.93 in Calm   4.0 mph 82% 0.01 in
03:44 56.6 °F 51.2 °F 29.93 in SSW 1.0 mph 3.0 mph 82% 0.01 in
03:49 56.5 °F 51.4 °F 29.93 in SSW 2.0 mph 3.0 mph 83% 0.01 in
03:54 56.5 °F 51.4 °F 29.94 in SSW 3.0 mph 5.0 mph 83% 0.01 in
03:59 56.4 °F 51.3 °F 29.94 in Calm   5.0 mph 83% 0.01 in
04:04 56.4 °F 51.6 °F 29.93 in SSW 2.0 mph 7.0 mph 84% 0.01 in
04:09 56.2 °F 51.4 °F 29.93 in SSW 1.0 mph 7.0 mph 84% 0.01 in
04:14 56.1 °F 51.3 °F 29.94 in SSW 1.0 mph 6.0 mph 84% 0.02 in
04:19 56.0 °F 51.2 °F 29.93 in SSE 6.0 mph 6.0 mph 84% 0.02 in
04:24 55.9 °F 51.1 °F 29.93 in South 1.0 mph 6.0 mph 84% 0.02 in
04:29 55.9 °F 51.1 °F 29.93 in South 4.0 mph 6.0 mph 84% 0.01 in
04:34 55.8 °F 51.0 °F 29.93 in South 2.0 mph 6.0 mph 84% 0.01 in
04:39 55.6 °F 50.8 °F 29.92 in SSE 3.0 mph 7.0 mph 84% 0.01 in
04:44 55.5 °F 50.4 °F 29.92 in SSE 3.0 mph 7.0 mph 83% 0.01 in
04:49 55.5 °F 50.7 °F 29.93 in Calm   4.0 mph 84% 0.01 in
04:54 55.4 °F 50.6 °F 29.93 in SSW 1.0 mph 4.0 mph 84% 0.01 in
04:59 55.2 °F 50.1 °F 29.93 in South 2.0 mph 5.0 mph 83% 0.01 in
05:04 55.0 °F 49.9 °F 29.93 in SSW 3.0 mph 6.0 mph 83% 0.01 in
05:09 54.9 °F 49.8 °F 29.93 in SSW 3.0 mph 6.0 mph 83% 0.01 in
05:14 54.8 °F 49.7 °F 29.93 in SSW 3.0 mph 10.0 mph 83% 0.00 in
05:19 54.9 °F 50.2 °F 29.93 in SSW 4.0 mph 12.0 mph 84% 0.00 in
05:24 54.9 °F 50.2 °F 29.94 in SSW 5.0 mph 12.0 mph 84% 0.05 in
05:29 55.1 °F 50.7 °F 29.94 in SW 5.0 mph 11.0 mph 85% 0.06 in
05:34 54.9 °F 50.8 °F 29.94 in WSW 6.0 mph 15.0 mph 86% 0.07 in
05:39 54.5 °F 50.1 °F 29.94 in WSW 5.0 mph 14.0 mph 85% 0.07 in
05:44 54.3 °F 50.2 °F 29.94 in West 4.0 mph 7.0 mph 86% 0.07 in
05:49 54.2 °F 50.1 °F 29.94 in West 5.0 mph 12.0 mph 86% 0.07 in
05:54 54.1 °F 50.0 °F 29.94 in West 2.0 mph 8.0 mph 86% 0.07 in
05:59 54.1 °F 50.0 °F 29.93 in WNW 2.0 mph 7.0 mph 86% 0.07 in
06:04 54.1 °F 49.7 °F 29.93 in West 3.0 mph 7.0 mph 85% 0.07 in
06:09 54.0 °F 49.9 °F 29.93 in WNW 1.0 mph 3.0 mph 86% 0.08 in
06:14 54.1 °F 50.0 °F 29.93 in Calm   2.0 mph 86% 0.08 in
06:19 54.1 °F 50.3 °F 29.94 in WNW 1.0 mph 3.0 mph 87% 0.07 in
06:24 54.1 °F 50.3 °F 29.94 in Calm   2.0 mph 87% 0.03 in
06:29 54.1 °F 50.3 °F 29.94 in Calm     87% 0.02 in
06:34 54.1 °F 50.6 °F 29.94 in Calm     88% 0.01 in
06:39 54.2 °F 50.7 °F 29.94 in Calm     88% 0.01 in
06:44 54.4 °F 50.9 °F 29.94 in Calm     88% 0.01 in
06:49 54.6 °F 51.1 °F 29.94 in Calm     88% 0.01 in
06:54 54.6 °F 51.1 °F 29.94 in Calm     88% 0.01 in
06:59 54.8 °F 51.3 °F 29.94 in Calm     88% 0.01 in
07:04 55.0 °F 51.5 °F 29.94 in Calm     88% 0.01 in
07:09 55.1 °F 51.6 °F 29.94 in Calm     88% 0.00 in
07:14 55.1 °F 51.6 °F 29.94 in Calm     88% 0.00 in
07:19 55.5 °F 52.0 °F 29.94 in South 2.0 mph 3.0 mph 88% 0.00 in
07:24 56.0 °F 52.5 °F 29.94 in South 1.0 mph 5.0 mph 88% 0.00 in
07:29 56.4 °F 52.6 °F 29.94 in SSW 2.0 mph 7.0 mph 87% 0.00 in
07:34 57.2 °F 53.4 °F 29.94 in SSW 2.0 mph 7.0 mph 87% 0.00 in
07:39 57.1 °F 52.6 °F 29.94 in SSW 3.0 mph 8.0 mph 85% 0.00 in
07:44 56.2 °F 51.4 °F 29.94 in SSW 4.0 mph 9.0 mph 84% 0.00 in
07:49 55.7 °F 50.9 °F 29.94 in SW 3.0 mph 9.0 mph 84% 0.00 in
07:54 55.5 °F 50.7 °F 29.95 in WSW 2.0 mph 4.0 mph 84% 0.00 in
07:59 55.6 °F 51.2 °F 29.95 in WSW 2.0 mph 4.0 mph 85% 0.00 in
08:04 55.8 °F 51.4 °F 29.95 in West 1.0 mph 4.0 mph 85% 0.00 in
08:09 56.0 °F 51.6 °F 29.95 in SSW 1.0 mph 4.0 mph 85% 0.00 in
08:14 56.2 °F 51.1 °F 29.95 in South 4.0 mph 5.0 mph 83% 0.00 in
08:19 56.5 °F 51.4 °F 29.95 in WSW 3.0 mph 6.0 mph 83% 0.00 in
08:24 56.8 °F 51.4 °F 29.95 in West 5.0 mph 8.0 mph 82% 0.00 in
08:29 57.4 °F 51.6 °F 29.95 in SW 4.0 mph 8.0 mph 81% 0.00 in
08:34 57.9 °F 51.4 °F 29.95 in SW 4.0 mph 8.0 mph 79% 0.00 in
08:39 58.2 °F 51.4 °F 29.95 in SW 4.0 mph 9.0 mph 78% 0.00 in
08:44 57.7 °F 49.8 °F 29.96 in NW 1.0 mph 12.0 mph 75% 0.00 in
08:49 55.3 °F 47.2 °F 29.96 in WNW 1.0 mph 7.0 mph 74% 0.00 in
08:54 54.2 °F 46.8 °F 29.95 in NNW 2.0 mph 6.0 mph 76% 0.00 in
08:59 53.6 °F 46.2 °F 29.95 in NNW 2.0 mph 6.0 mph 76% 0.01 in
09:04 53.2 °F 47.2 °F 29.95 in North 1.0 mph 5.0 mph 80% 0.03 in
09:09 52.9 °F 47.6 °F 29.97 in NNW 1.0 mph 5.0 mph 82% 0.03 in
09:14 52.6 °F 47.6 °F 29.97 in Calm   5.0 mph 83% 0.06 in
09:19 52.4 °F 47.7 °F 29.97 in NW 2.0 mph 3.0 mph 84% 0.07 in
09:24 52.4 °F 48.0 °F 29.97 in Calm   2.0 mph 85% 0.08 in
09:29 52.6 °F 48.5 °F 29.97 in Calm   2.0 mph 86% 0.12 in
09:34 53.0 °F 49.2 °F 29.96 in Calm     87% 0.12 in
09:39 53.3 °F 49.5 °F 29.96 in Calm   9.0 mph 87% 0.12 in
09:44 54.5 °F 50.7 °F 29.96 in South 3.0 mph 7.0 mph 87% 0.12 in
09:49 55.3 °F 50.9 °F 29.97 in SW 5.0 mph 12.0 mph 85% 0.12 in
09:54 55.9 °F 51.1 °F 29.97 in SW 2.0 mph 9.0 mph 84% 0.12 in
09:59 56.5 °F 51.7 °F 29.97 in WNW 1.0 mph 7.0 mph 84% 0.11 in
10:04 56.7 °F 50.9 °F 29.97 in West 3.0 mph 7.0 mph 81% 0.09 in
10:09 57.0 °F 51.6 °F 29.97 in West 3.0 mph 7.0 mph 82% 0.09 in
10:14 57.1 °F 51.7 °F 29.97 in WNW 3.0 mph 7.0 mph 82% 0.06 in
10:19 57.5 °F 52.4 °F 29.97 in WNW 2.0 mph 6.0 mph 83% 0.05 in
10:24 58.0 °F 51.5 °F 29.97 in West 2.0 mph 7.0 mph 79% 0.03 in
10:29 58.4 °F 51.6 °F 29.96 in WSW 4.0 mph 10.0 mph 78% 0.00 in
10:34 58.2 °F 51.0 °F 29.97 in SW 9.0 mph 12.0 mph 77% 0.00 in
10:39 58.1 °F 50.6 °F 29.96 in WSW 3.0 mph 12.0 mph 76% 0.00 in
10:44 58.3 °F 51.5 °F 29.96 in SSW 3.0 mph 8.0 mph 78% 0.00 in
10:49 58.8 °F 51.6 °F 29.96 in SW 6.0 mph 10.0 mph 77% 0.00 in
10:54 59.4 °F 52.2 °F 29.96 in SW 6.0 mph 11.0 mph 77% 0.00 in
10:59 60.8 °F 52.5 °F 29.96 in WSW 4.0 mph 11.0 mph 74% 0.00 in
11:04 60.0 °F 51.3 °F 29.96 in WSW 6.0 mph 15.0 mph 73% 0.00 in
11:09 60.3 °F 52.0 °F 29.96 in SW 6.0 mph 15.0 mph 74% 0.00 in
11:14 61.2 °F 51.7 °F 29.96 in SSW 6.0 mph 14.0 mph 71% 0.00 in
11:19 62.4 °F 52.5 °F 29.96 in SW 5.0 mph 11.0 mph 70% 0.00 in
11:24 62.5 °F 51.4 °F 29.96 in WSW 6.0 mph 11.0 mph 67% 0.00 in
11:29 62.3 °F 51.6 °F 29.96 in SW 3.0 mph 13.0 mph 68% 0.00 in
11:34 61.4 °F 50.7 °F 29.96 in SW 5.0 mph 13.0 mph 68% 0.00 in
11:39 61.2 °F 50.9 °F 29.95 in WSW 5.0 mph 11.0 mph 69% 0.00 in
11:44 63.6 °F 53.6 °F 29.95 in SW 5.0 mph 11.0 mph 70% 0.00 in
11:49 63.9 °F 53.5 °F 29.96 in WSW 9.0 mph 12.0 mph 69% 0.00 in
11:54 64.2 °F 53.0 °F 29.95 in West 7.0 mph 10.0 mph 67% 0.00 in
11:59 63.3 °F 50.9 °F 29.95 in West 6.0 mph 17.0 mph 64% 0.00 in
12:04 61.9 °F 49.2 °F 29.96 in WSW 8.0 mph 17.0 mph 63% 0.00 in
12:09 60.9 °F 51.4 °F 29.96 in West 6.0 mph 17.0 mph 71% 0.00 in
12:14 59.6 °F 50.9 °F 29.96 in West 3.0 mph 9.0 mph 73% 0.01 in
12:19 59.1 °F 51.5 °F 29.96 in West 2.0 mph 6.0 mph 76% 0.01 in
12:24 59.3 °F 51.7 °F 29.96 in WSW 11.0 mph 11.0 mph 76% 0.01 in
12:29 59.7 °F 52.1 °F 29.96 in West 4.0 mph 11.0 mph 76% 0.01 in
12:34 60.2 °F 52.6 °F 29.96 in WSW 4.0 mph 11.0 mph 76% 0.01 in
12:39 61.4 °F 53.0 °F 29.95 in SW 5.0 mph 11.0 mph 74% 0.01 in
12:44 61.8 °F 53.8 °F 29.95 in SW 6.0 mph 14.0 mph 75% 0.01 in
12:49 61.9 °F 52.8 °F 29.95 in WSW 7.0 mph 19.0 mph 72% 0.01 in
12:54 63.0 °F 54.2 °F 29.95 in WSW 8.0 mph 19.0 mph 73% 0.01 in
12:59 62.6 °F 52.3 °F 29.95 in WSW 8.0 mph 17.0 mph 69% 0.01 in
13:04 62.1 °F 53.7 °F 29.96 in WSW 8.0 mph 13.0 mph 74% 0.01 in
13:09 62.6 °F 54.2 °F 29.96 in SW 11.0 mph 19.0 mph 74% 0.01 in
13:14 63.9 °F 53.5 °F 29.96 in West 9.0 mph 18.0 mph 69% 0.00 in
13:19 64.7 °F 54.3 °F 29.95 in SW 13.0 mph 17.0 mph 69% 0.00 in
13:24 63.8 °F 52.6 °F 29.95 in WSW 12.0 mph 20.0 mph 67% 0.00 in
13:29 62.9 °F 52.6 °F 29.96 in WSW 13.0 mph 22.0 mph 69% 0.00 in
13:34 62.4 °F 52.5 °F 29.96 in WSW 10.0 mph 22.0 mph 70% 0.00 in
13:39 62.5 °F 53.0 °F 29.96 in WSW 9.0 mph 20.0 mph 71% 0.00 in
13:44 62.5 °F 54.1 °F 29.96 in West 8.0 mph 18.0 mph 74% 0.00 in
13:49 62.3 °F 54.6 °F 29.96 in West 7.0 mph 18.0 mph 76% 0.00 in
13:54 63.9 °F 54.3 °F 29.96 in WSW 7.0 mph 15.0 mph 71% 0.00 in
13:59 64.9 °F 53.7 °F 29.96 in WSW 8.0 mph 18.0 mph 67% 0.00 in
14:04 65.0 °F 54.2 °F 29.96 in SW 5.0 mph 19.0 mph 68% 0.00 in
14:09 64.4 °F 53.6 °F 29.96 in SW 8.0 mph 17.0 mph 68% 0.00 in
14:14 64.1 °F 52.5 °F 29.96 in WNW 5.0 mph 17.0 mph 66% 0.00 in
14:19 64.1 °F 51.7 °F 29.96 in West 5.0 mph 20.0 mph 64% 0.00 in
14:24 64.8 °F 52.3 °F 29.96 in WSW 10.0 mph 19.0 mph 64% 0.00 in
14:29 63.7 °F 52.5 °F 29.96 in WSW 9.0 mph 19.0 mph 67% 0.00 in
14:34 62.8 °F 53.3 °F 29.97 in WSW 9.0 mph 18.0 mph 71% 0.00 in
14:39 62.5 °F 53.3 °F 29.97 in WSW 9.0 mph 18.0 mph 72% 0.00 in
14:44 60.6 °F 52.3 °F 29.97 in West 8.0 mph 17.0 mph 74% 0.00 in
14:49 59.6 °F 53.8 °F 29.97 in West 7.0 mph 17.0 mph 81% 0.01 in
14:54 59.9 °F 54.1 °F 29.97 in WNW 3.0 mph 11.0 mph 81% 0.01 in
14:59 59.8 °F 54.0 °F 29.97 in WSW 6.0 mph 13.0 mph 81% 0.01 in
15:04 59.7 °F 54.2 °F 29.97 in WSW 6.0 mph 13.0 mph 82% 0.01 in
15:09 59.4 °F 53.9 °F 29.98 in WSW 6.0 mph 15.0 mph 82% 0.01 in
15:14 58.7 °F 53.2 °F 29.97 in SW 4.0 mph 15.0 mph 82% 0.02 in
15:19 59.1 °F 54.3 °F 29.97 in WSW 10.0 mph 12.0 mph 84% 0.02 in
15:24 61.1 °F 55.9 °F 29.97 in West 3.0 mph 15.0 mph 83% 0.02 in
15:29 62.0 °F 56.1 °F 29.97 in West 7.0 mph 15.0 mph 81% 0.02 in
15:34 62.7 °F 56.4 °F 29.97 in West 6.0 mph 13.0 mph 80% 0.02 in
15:39 62.8 °F 55.5 °F 29.97 in WSW 6.0 mph 12.0 mph 77% 0.02 in
15:44 63.1 °F 56.1 °F 29.97 in NW 8.0 mph 15.0 mph 78% 0.02 in
15:49 62.9 °F 53.4 °F 29.97 in WSW 14.0 mph 16.0 mph 71% 0.01 in
15:54 61.9 °F 53.9 °F 29.97 in West 7.0 mph 17.0 mph 75% 0.01 in
15:59 62.6 °F 53.8 °F 29.97 in West 8.0 mph 17.0 mph 73% 0.01 in
16:04 62.7 °F 53.5 °F 29.97 in West 8.0 mph 14.0 mph 72% 0.01 in
16:09 62.8 °F 54.8 °F 29.97 in West 7.0 mph 13.0 mph 75% 0.01 in
16:14 62.7 °F 53.5 °F 29.97 in West 6.0 mph 15.0 mph 72% 0.00 in
16:19 62.7 °F 53.9 °F 29.97 in WNW 14.0 mph 14.0 mph 73% 0.00 in
16:24 62.2 °F 53.8 °F 29.98 in WNW 6.0 mph 14.0 mph 74% 0.00 in
16:29 61.7 °F 54.1 °F 29.98 in West 6.0 mph 14.0 mph 76% 0.00 in
16:34 61.3 °F 53.7 °F 29.98 in WSW 4.0 mph 15.0 mph 76% 0.00 in
16:39 61.1 °F 53.8 °F 29.98 in West 8.0 mph 9.0 mph 77% 0.00 in
16:44 61.0 °F 54.1 °F 29.98 in West 9.0 mph 13.0 mph 78% 0.00 in
16:49 61.0 °F 53.0 °F 29.98 in West 5.0 mph 12.0 mph 75% 0.00 in
16:54 61.4 °F 53.8 °F 29.98 in West 3.0 mph 9.0 mph 76% 0.00 in
16:59 61.6 °F 53.2 °F 29.98 in West 6.0 mph 12.0 mph 74% 0.00 in
17:04 61.7 °F 53.7 °F 29.98 in West 6.0 mph 12.0 mph 75% 0.00 in
17:09 61.8 °F 53.4 °F 29.98 in West 7.0 mph 12.0 mph 74% 0.00 in
17:14 61.9 °F 53.5 °F 29.98 in WSW 3.0 mph 12.0 mph 74% 0.00 in
17:19 62.0 °F 54.0 °F 29.98 in WSW 5.0 mph 13.0 mph 75% 0.00 in
17:24 62.0 °F 54.0 °F 29.98 in West 9.0 mph 12.0 mph 75% 0.00 in
17:29 62.1 °F 53.7 °F 29.98 in West 6.0 mph 12.0 mph 74% 0.00 in
17:34 62.1 °F 53.3 °F 29.98 in WSW 7.0 mph 14.0 mph 73% 0.00 in
17:39 62.6 °F 53.8 °F 29.98 in WSW 6.0 mph 14.0 mph 73% 0.00 in
17:44 63.2 °F 54.8 °F 29.97 in WSW 4.0 mph 11.0 mph 74% 0.00 in
17:49 64.2 °F 55.7 °F 29.97 in WSW 6.0 mph 11.0 mph 74% 0.00 in
17:54 65.3 °F 55.7 °F 29.97 in SW 10.0 mph 15.0 mph 71% 0.00 in
17:59 65.5 °F 55.1 °F 29.97 in WSW 6.0 mph 15.0 mph 69% 0.00 in
18:04 65.8 °F 55.3 °F 29.97 in WNW 5.0 mph 11.0 mph 69% 0.00 in
18:09 66.6 °F 55.7 °F 29.97 in West 4.0 mph 11.0 mph 68% 0.00 in
18:14 66.4 °F 54.7 °F 29.97 in WSW 4.0 mph 9.0 mph 66% 0.00 in
18:19 66.0 °F 53.9 °F 29.97 in SW 11.0 mph 11.0 mph 65% 0.00 in
18:24 66.1 °F 53.6 °F 29.96 in WSW 8.0 mph 12.0 mph 64% 0.00 in
18:29 65.9 °F 53.8 °F 29.97 in WSW 5.0 mph 12.0 mph 65% 0.00 in
18:34 65.9 °F 53.4 °F 29.97 in West 5.0 mph 10.0 mph 64% 0.00 in
18:39 66.1 °F 54.4 °F 29.97 in West 5.0 mph 10.0 mph 66% 0.00 in
18:44 66.2 °F 53.7 °F 29.97 in West 5.0 mph 10.0 mph 64% 0.00 in
18:49 66.2 °F 53.7 °F 29.97 in West 5.0 mph 10.0 mph 64% 0.00 in
18:54 65.9 °F 52.9 °F 29.97 in West 3.0 mph 10.0 mph 63% 0.00 in
18:59 66.0 °F 53.0 °F 29.97 in WNW 6.0 mph 8.0 mph 63% 0.00 in
19:04 66.2 °F 53.7 °F 29.97 in WSW 5.0 mph 7.0 mph 64% 0.00 in
19:09 65.8 °F 52.4 °F 29.97 in WSW 3.0 mph 12.0 mph 62% 0.00 in
19:14 65.7 °F 52.8 °F 29.97 in West 5.0 mph 8.0 mph 63% 0.00 in
19:19 65.6 °F 52.2 °F 29.97 in West 5.0 mph 10.0 mph 62% 0.00 in
19:24 65.1 °F 52.2 °F 29.97 in West 3.0 mph 9.0 mph 63% 0.00 in
19:29 64.6 °F 52.6 °F 29.97 in West 4.0 mph 9.0 mph 65% 0.00 in
19:34 64.7 °F 52.2 °F 29.97 in West 3.0 mph 8.0 mph 64% 0.00 in
19:39 64.8 °F 52.3 °F 29.98 in West 4.0 mph 8.0 mph 64% 0.00 in
19:44 64.9 °F 52.0 °F 29.98 in West 3.0 mph 7.0 mph 63% 0.00 in
19:49 64.7 °F 52.2 °F 29.98 in West 2.0 mph 6.0 mph 64% 0.00 in
19:54 64.3 °F 51.9 °F 29.99 in WNW 3.0 mph 8.0 mph 64% 0.00 in
19:59 63.9 °F 52.3 °F 29.99 in West 3.0 mph 8.0 mph 66% 0.00 in
20:04 63.7 °F 52.1 °F 29.99 in West 3.0 mph 6.0 mph 66% 0.00 in
20:09 63.9 °F 52.3 °F 29.99 in West 2.0 mph 5.0 mph 66% 0.00 in
20:14 64.0 °F 52.8 °F 29.99 in West 2.0 mph 4.0 mph 67% 0.00 in
20:19 64.2 °F 52.6 °F 29.99 in West 2.0 mph 5.0 mph 66% 0.00 in
20:24 64.5 °F 53.3 °F 29.99 in West 2.0 mph 5.0 mph 67% 0.00 in
20:29 64.7 °F 53.1 °F 29.99 in West 2.0 mph 6.0 mph 66% 0.00 in
20:34 64.5 °F 52.9 °F 29.99 in West 2.0 mph 6.0 mph 66% 0.00 in
20:39 64.2 °F 53.0 °F 29.99 in West 2.0 mph 4.0 mph 67% 0.00 in
20:44 64.1 °F 52.9 °F 30.00 in Calm   6.0 mph 67% 0.00 in
20:49 63.8 °F 52.6 °F 30.00 in West 1.0 mph 4.0 mph 67% 0.00 in
20:54 63.7 °F 52.5 °F 30.00 in West 2.0 mph 5.0 mph 67% 0.00 in
20:59 63.5 °F 52.3 °F 30.00 in West 2.0 mph 5.0 mph 67% 0.00 in
21:04 63.2 °F 52.5 °F 30.00 in West 2.0 mph 3.0 mph 68% 0.00 in
21:09 63.0 °F 52.3 °F 30.00 in West 1.0 mph 3.0 mph 68% 0.00 in
21:14 62.8 °F 52.5 °F 30.00 in Calm   2.0 mph 69% 0.00 in
21:19 62.4 °F 52.1 °F 30.00 in Calm   1.0 mph 69% 0.00 in
21:24 62.2 °F 52.3 °F 30.00 in Calm   3.0 mph 70% 0.00 in
21:29 62.3 °F 52.4 °F 30.00 in West 1.0 mph 5.0 mph 70% 0.00 in
21:34 62.5 °F 51.8 °F 30.01 in West 4.0 mph 5.0 mph 68% 0.00 in
21:39 62.7 °F 51.6 °F 30.01 in West 4.0 mph 4.0 mph 67% 0.00 in
21:44 62.8 °F 50.9 °F 30.01 in West 3.0 mph 7.0 mph 65% 0.00 in
21:49 62.9 °F 50.5 °F 30.01 in West 1.0 mph 7.0 mph 64% 0.00 in
21:54 62.8 °F 50.4 °F 30.01 in WNW 2.0 mph 5.0 mph 64% 0.00 in
21:59 62.6 °F 50.2 °F 30.02 in West 2.0 mph 7.0 mph 64% 0.00 in
22:04 62.4 °F 50.1 °F 30.02 in West 3.0 mph 7.0 mph 64% 0.00 in
22:09 62.2 °F 49.9 °F 30.02 in WSW 3.0 mph 7.0 mph 64% 0.00 in
22:14 62.2 °F 49.4 °F 30.02 in WSW 3.0 mph 7.0 mph 63% 0.00 in
22:19 61.9 °F 49.2 °F 30.02 in West 2.0 mph 5.0 mph 63% 0.00 in
22:24 61.7 °F 48.5 °F 30.02 in West 3.0 mph 6.0 mph 62% 0.00 in
22:29 61.4 °F 48.7 °F 30.02 in West 3.0 mph 6.0 mph 63% 0.00 in
22:34 61.2 °F 48.9 °F 30.02 in West 2.0 mph 6.0 mph 64% 0.00 in
22:39 60.9 °F 48.6 °F 30.02 in West 2.0 mph 5.0 mph 64% 0.00 in
22:44 60.7 °F 48.4 °F 30.02 in Calm   4.0 mph 64% 0.00 in
22:49 60.3 °F 48.5 °F 30.03 in SW 2.0 mph 3.0 mph 65% 0.00 in
22:54 59.9 °F 48.1 °F 30.03 in WSW 1.0 mph 3.0 mph 65% 0.00 in
22:59 59.8 °F 48.0 °F 30.03 in WSW 2.0 mph 4.0 mph 65% 0.00 in
23:04 59.8 °F 47.6 °F 30.03 in WSW 2.0 mph 4.0 mph 64% 0.00 in
23:09 59.6 °F 47.4 °F 30.03 in WSW 2.0 mph 4.0 mph 64% 0.00 in
23:14 59.6 °F 47.8 °F 30.03 in WSW 4.0 mph 5.0 mph 65% 0.00 in
23:19 59.7 °F 48.3 °F 30.04 in West 4.0 mph 4.0 mph 66% 0.00 in
23:24 59.9 °F 49.3 °F 30.04 in WSW 2.0 mph 5.0 mph 68% 0.00 in
23:29 60.2 °F 50.4 °F 30.04 in West 2.0 mph 5.0 mph 70% 0.00 in
23:34 60.5 °F 51.4 °F 30.04 in WSW 2.0 mph 5.0 mph 72% 0.00 in
23:39 60.6 °F 51.9 °F 30.04 in West 2.0 mph 5.0 mph 73% 0.00 in
23:44 60.8 °F 52.1 °F 30.04 in West 3.0 mph 6.0 mph 73% 0.00 in
23:49 60.9 °F 52.6 °F 30.04 in West 3.0 mph 7.0 mph 74% 0.00 in
23:54 61.0 °F 52.7 °F 30.04 in West 1.0 mph 5.0 mph 74% 0.00 in
23:59 61.0 °F 52.7 °F 30.04 in West 1.0 mph 5.0 mph 74% 0.00 in
Buffalo, New York, USA
Compliments of Weather Underground - 2.5 mb